createdAt,value
2023-04-18T00:00:42.237Z,102835.06
2023-04-18T00:03:18.186Z,102825.72
2023-04-18T00:05:47.785Z,102836.78
2023-04-18T00:08:17.431Z,102845.41
2023-04-18T00:10:44.035Z,102836.28
2023-04-18T00:13:10.644Z,102835.75
2023-04-18T00:15:37.148Z,102840.91
2023-04-18T00:18:06.199Z,102839.06
2023-04-18T00:20:33.106Z,102837.25
2023-04-18T00:23:00.660Z,102838.91
2023-04-18T00:25:27.276Z,102837.31
2023-04-18T00:27:53.772Z,102838.13
2023-04-18T00:30:20.226Z,102837.63
2023-04-18T00:32:46.721Z,102842.47
2023-04-18T00:35:13.326Z,102837.13
2023-04-18T00:37:39.758Z,102837.13
2023-04-18T00:40:06.681Z,102842.53
2023-04-18T00:42:33.588Z,102843.91
2023-04-18T00:45:00.163Z,102834.50
2023-04-18T00:47:26.865Z,102838.56
2023-04-18T00:49:54.272Z,102829.41
2023-04-18T00:52:21.134Z,102835.34
2023-04-18T00:54:47.660Z,102831.59
2023-04-18T00:57:14.513Z,102832.13
2023-04-18T00:59:50.484Z,102835.66
2023-04-18T01:02:17.405Z,102826.50
2023-04-18T01:04:44.021Z,102830.84
2023-04-18T01:09:52.890Z,102829.50
2023-04-18T01:12:19.507Z,102827.41
2023-04-18T01:14:46.076Z,102835.50
2023-04-18T01:17:13.378Z,102834.44
2023-04-18T01:19:40.735Z,102825.03
2023-04-18T01:22:08.365Z,102825.06
2023-04-18T01:24:35.007Z,102827.50
2023-04-18T01:27:03.137Z,102827.75
2023-04-18T01:29:29.719Z,102820.25
2023-04-18T01:31:56.122Z,102817.03
2023-04-18T01:34:22.806Z,102821.88
2023-04-18T01:36:49.555Z,102813.53
2023-04-18T01:39:16.256Z,102813.03
2023-04-18T01:44:33.766Z,102802.00
2023-04-18T01:47:00.257Z,102811.69
2023-04-18T01:49:29.937Z,102812.78
2023-04-18T01:51:56.321Z,102817.06
2023-04-18T01:54:22.826Z,102812.50
2023-04-18T01:56:49.354Z,102814.13
2023-04-18T01:59:16.032Z,102818.97
2023-04-18T02:01:42.773Z,102809.81
2023-04-18T02:04:09.576Z,102814.66
2023-04-18T02:06:36.206Z,102810.66
2023-04-18T02:09:02.687Z,102808.22
2023-04-18T02:11:29.926Z,102811.44
2023-04-18T02:13:56.529Z,102805.28
2023-04-18T02:16:23.015Z,102815.22
2023-04-18T02:18:52.494Z,102806.88
2023-04-18T02:21:19.014Z,102809.31
2023-04-18T02:23:45.519Z,102804.19
2023-04-18T02:26:12.106Z,102806.38
2023-04-18T02:28:39.126Z,102805.84
2023-04-18T02:33:56.623Z,102804.78
2023-04-18T02:36:23.368Z,102809.31
2023-04-18T02:38:49.788Z,102802.63
2023-04-18T02:41:19.609Z,102818.19
2023-04-18T02:43:46.219Z,102811.47
2023-04-18T02:46:12.856Z,102816.56
2023-04-18T02:48:39.468Z,102809.03
2023-04-18T02:51:07.587Z,102806.09
2023-04-18T02:53:34.991Z,102817.38
2023-04-18T02:56:02.273Z,102809.88
2023-04-18T02:58:28.780Z,102807.72
2023-04-18T03:00:56.402Z,102808.00
2023-04-18T03:03:23.005Z,102808.78
2023-04-18T03:05:49.401Z,102816.03
2023-04-18T03:08:16.282Z,102812.56
2023-04-18T03:10:42.907Z,102805.84
2023-04-18T03:13:09.552Z,102803.41
2023-04-18T03:15:35.986Z,102798.88
2023-04-18T03:18:02.508Z,102801.81
2023-04-18T03:20:28.962Z,102803.41
2023-04-18T03:22:55.610Z,102804.50
2023-04-18T03:25:22.129Z,102810.13
2023-04-18T03:27:48.709Z,102807.97
2023-04-18T03:30:15.359Z,102806.66
2023-04-18T03:32:42.337Z,102810.66
2023-04-18T03:35:09.375Z,102816.28
2023-04-18T03:37:36.148Z,102811.47
2023-04-18T03:40:08.735Z,102813.34
2023-04-18T03:42:35.294Z,102822.47
2023-04-18T03:45:05.034Z,102808.50
2023-04-18T03:47:32.263Z,102820.84
2023-04-18T03:50:01.069Z,102823.00
2023-04-18T03:52:29.737Z,102819.25
2023-04-18T03:54:56.349Z,102817.34
2023-04-18T03:57:23.083Z,102818.66
2023-04-18T03:59:49.672Z,102825.13
2023-04-18T04:02:16.395Z,102826.47
2023-04-18T04:04:43.143Z,102824.63
2023-04-18T04:07:09.757Z,102822.47
2023-04-18T04:09:36.241Z,102823.81
2023-04-18T04:12:03.238Z,102822.47
2023-04-18T04:14:29.649Z,102818.72
2023-04-18T04:16:56.294Z,102821.94
2023-04-18T04:19:22.818Z,102822.19
2023-04-18T04:21:49.485Z,102819.25
2023-04-18T04:24:16.192Z,102818.97
2023-04-18T04:26:43.283Z,102824.09
2023-04-18T04:29:10.917Z,102827.31
2023-04-18T04:31:37.512Z,102825.72
2023-04-18T04:34:04.986Z,102828.41
2023-04-18T04:36:33.509Z,102825.72
2023-04-18T04:39:00.041Z,102829.22
2023-04-18T04:41:27.837Z,102822.22
2023-04-18T04:43:54.521Z,102827.59
2023-04-18T04:46:21.123Z,102829.75
2023-04-18T04:48:47.624Z,102827.59
2023-04-18T04:51:14.050Z,102832.97
2023-04-18T04:53:40.425Z,102831.63
2023-04-18T04:56:07.312Z,102839.41
2023-04-18T04:58:34.175Z,102838.91
2023-04-18T05:01:00.833Z,102839.97
2023-04-18T05:03:27.492Z,102833.78
2023-04-18T05:05:54.116Z,102844.53
2023-04-18T05:08:20.806Z,102839.69
2023-04-18T05:10:47.743Z,102837.81
2023-04-18T05:13:14.204Z,102838.34
2023-04-18T05:15:40.798Z,102838.88
2023-04-18T05:18:07.428Z,102837.53
2023-04-18T05:20:33.887Z,102838.88
2023-04-18T05:23:00.366Z,102841.28
2023-04-18T05:25:26.880Z,102842.66
2023-04-18T05:27:53.423Z,102846.66
2023-04-18T05:30:21.978Z,102848.56
2023-04-18T05:32:48.706Z,102847.75
2023-04-18T05:35:15.474Z,102852.03
2023-04-18T05:37:57.706Z,102854.19
2023-04-18T05:40:35.715Z,102853.69
2023-04-18T05:43:02.267Z,102857.97
2023-04-18T05:45:28.898Z,102861.75
2023-04-18T05:47:56.498Z,102865.25
2023-04-18T05:50:23.227Z,102855.84
2023-04-18T05:52:49.678Z,102859.84
2023-04-18T05:55:16.137Z,102857.44
2023-04-18T05:57:42.646Z,102857.69
2023-04-18T06:00:12.977Z,102863.34
2023-04-18T06:02:39.654Z,102865.22
2023-04-18T06:05:06.536Z,102859.56
2023-04-18T06:07:33.113Z,102873.81
2023-04-18T06:09:59.578Z,102874.06
2023-04-18T06:12:26.046Z,102869.50
2023-04-18T06:14:52.529Z,102870.06
2023-04-18T06:17:19.207Z,102879.19
2023-04-18T06:19:45.705Z,102873.25
2023-04-18T06:22:12.062Z,102879.94
2023-04-18T06:24:38.563Z,102878.56
2023-04-18T06:27:05.598Z,102882.28
2023-04-18T06:29:33.773Z,102887.91
2023-04-18T06:32:01.225Z,102884.38
2023-04-18T06:34:27.982Z,102881.41
2023-04-18T06:39:49.227Z,102887.19
2023-04-18T06:42:15.681Z,102883.59
2023-04-18T06:44:43.189Z,102883.78
2023-04-18T06:47:11.098Z,102881.28
2023-04-18T06:49:37.694Z,102889.88
2023-04-18T06:52:04.264Z,102889.66
2023-04-18T06:54:30.909Z,102888.06
2023-04-18T06:56:57.549Z,102890.72
2023-04-18T06:59:23.964Z,102893.16
2023-04-18T07:01:57.017Z,102898.84
2023-04-18T07:04:29.655Z,102892.03
2023-04-18T07:06:56.132Z,102898.72
2023-04-18T07:09:23.051Z,102898.41
2023-04-18T07:11:51.075Z,102896.28
2023-04-18T07:14:19.789Z,102899.78
2023-04-18T07:16:47.251Z,102898.22
2023-04-18T07:19:14.024Z,102894.97
2023-04-18T07:21:42.949Z,102901.91
2023-04-18T07:24:10.136Z,102901.91
2023-04-18T07:26:37.374Z,102910.75
2023-04-18T07:29:04.416Z,102909.69
2023-04-18T07:31:31.517Z,102897.28
2023-04-18T07:33:58.680Z,102899.31
2023-04-18T07:36:26.324Z,102887.94
2023-04-18T07:38:52.817Z,102901.63
2023-04-18T07:41:19.340Z,102897.25
2023-04-18T07:43:45.748Z,102897.72
2023-04-18T07:46:12.410Z,102891.34
2023-04-18T07:48:38.982Z,102890.28
2023-04-18T07:51:05.690Z,102882.63
2023-04-18T07:53:32.041Z,102887.69
2023-04-18T07:55:58.622Z,102890.72
2023-04-18T07:58:25.033Z,102892.66
2023-04-18T08:00:51.622Z,102893.84
2023-04-18T08:03:18.403Z,102895.41
2023-04-18T08:05:44.928Z,102899.53
2023-04-18T08:08:12.319Z,102890.59
2023-04-18T08:10:38.971Z,102899.22
2023-04-18T08:13:06.726Z,102897.25
2023-04-18T08:15:33.238Z,102897.13
2023-04-18T08:18:00.481Z,102895.22
2023-04-18T08:20:27.432Z,102896.69
2023-04-18T08:23:05.654Z,102897.50
2023-04-18T08:25:36.095Z,102894.84
2023-04-18T08:28:02.504Z,102903.91
2023-04-18T08:30:29.456Z,102906.38
2023-04-18T08:32:55.947Z,102901.28
2023-04-18T08:35:22.614Z,102911.47
2023-04-18T08:37:49.117Z,102897.09
2023-04-18T08:40:15.605Z,102909.38
2023-04-18T08:42:46.425Z,102901.75
2023-04-18T08:45:16.547Z,102893.09
2023-04-18T08:47:44.547Z,102900.34
2023-04-18T08:50:11.271Z,102904.97
2023-04-18T08:52:39.934Z,102910.94
2023-04-18T08:55:07.389Z,102902.88
2023-04-18T08:57:35.896Z,102899.59
2023-04-18T09:00:02.333Z,102902.94
2023-04-18T09:02:42.454Z,102911.00
2023-04-18T09:05:19.982Z,102904.34
2023-04-18T09:07:47.821Z,102899.19
2023-04-18T09:10:25.257Z,102891.47
2023-04-18T09:12:52.131Z,102896.09
2023-04-18T09:15:23.208Z,102913.38
2023-04-18T09:17:53.369Z,102896.13
2023-04-18T09:20:41.344Z,102905.75
2023-04-18T09:23:14.875Z,102893.97
2023-04-18T09:25:44.122Z,102886.63
2023-04-18T09:28:29.140Z,102888.00
2023-04-18T09:30:58.122Z,102890.00
2023-04-18T09:33:29.749Z,102894.09
2023-04-18T09:36:16.833Z,102895.41
2023-04-18T09:38:43.504Z,102888.09
2023-04-18T09:41:25.344Z,102895.78
2023-04-18T09:44:14.025Z,102888.41
2023-04-18T09:46:42.520Z,102880.44
2023-04-18T09:49:11.335Z,102891.00
2023-04-18T09:51:40.186Z,102883.31
2023-04-18T09:54:07.269Z,102887.25
2023-04-18T09:56:51.766Z,102881.75
2023-04-18T09:59:44.701Z,102884.78
2023-04-18T10:02:47.191Z,102885.28
2023-04-18T10:05:20.779Z,102879.81
2023-04-18T10:07:50.455Z,102881.91
2023-04-18T10:10:17.401Z,102885.25
2023-04-18T10:12:44.758Z,102887.06
2023-04-18T10:15:11.839Z,102885.13
2023-04-18T10:18:05.757Z,102874.31
2023-04-18T10:20:34.984Z,102884.66
2023-04-18T10:23:31.350Z,102879.69
2023-04-18T10:25:59.286Z,102878.50
2023-04-18T10:28:27.701Z,102877.16
2023-04-18T10:30:56.099Z,102887.75
2023-04-18T10:33:33.751Z,102867.00
2023-04-18T10:36:09.371Z,102875.38
2023-04-18T10:38:44.921Z,102876.94
2023-04-18T10:41:22.363Z,102882.66
2023-04-18T10:44:10.110Z,102871.97
2023-04-18T10:46:38.422Z,102872.13
2023-04-18T10:49:24.014Z,102869.16
2023-04-18T10:51:54.391Z,102861.19
2023-04-18T10:54:37.810Z,102851.13
2023-04-18T10:57:05.885Z,102848.56
2023-04-18T10:59:37.619Z,102855.78
2023-04-18T11:02:25.659Z,102846.00
2023-04-18T11:04:53.846Z,102846.91
2023-04-18T11:07:34.033Z,102845.69
2023-04-18T11:10:01.594Z,102856.03
2023-04-18T11:12:32.953Z,102848.34
2023-04-18T11:15:03.140Z,102845.13
2023-04-18T11:17:35.978Z,102849.44
2023-04-18T11:20:17.251Z,102842.56
2023-04-18T11:23:01.858Z,102845.09
2023-04-18T11:25:30.675Z,102843.16
2023-04-18T11:28:01.715Z,102838.09
2023-04-18T11:30:36.076Z,102840.03
2023-04-18T11:33:11.184Z,102836.66
2023-04-18T11:35:42.841Z,102838.09
2023-04-18T11:38:11.729Z,102835.38
2023-04-18T11:40:38.481Z,102836.13
2023-04-18T11:43:07.586Z,102838.50
2023-04-18T11:45:34.033Z,102837.72
2023-04-18T11:48:01.313Z,102829.81
2023-04-18T11:50:28.010Z,102834.59
2023-04-18T11:52:55.596Z,102844.34
2023-04-18T11:55:24.975Z,102834.44
2023-04-18T11:57:53.911Z,102843.88
2023-04-18T12:00:43.601Z,102841.00
2023-04-18T12:03:17.968Z,102844.94
2023-04-18T12:05:46.778Z,102844.31
2023-04-18T12:08:20.674Z,102838.28
2023-04-18T12:10:53.006Z,102830.44
2023-04-18T12:13:25.068Z,102842.28
2023-04-18T12:15:51.535Z,102837.31
2023-04-18T12:18:31.455Z,102839.72
2023-04-18T12:21:02.168Z,102838.75
2023-04-18T12:23:37.285Z,102841.03
2023-04-18T12:26:07.658Z,102839.09
2023-04-18T12:28:35.766Z,102829.22
2023-04-18T12:31:02.923Z,102833.03
2023-04-18T12:33:30.628Z,102836.38
2023-04-18T12:36:05.012Z,102826.97
2023-04-18T12:38:31.449Z,102824.59
2023-04-18T12:40:57.820Z,102832.59
2023-04-18T12:43:24.441Z,102826.03
2023-04-18T12:45:51.057Z,102819.44
2023-04-18T12:48:17.467Z,102815.31
2023-04-18T12:50:44.018Z,102816.09
2023-04-18T12:53:10.751Z,102818.50
2023-04-18T12:55:37.673Z,102817.84
2023-04-18T12:58:04.365Z,102821.69
2023-04-18T13:00:32.779Z,102825.34
2023-04-18T13:02:59.928Z,102823.94
2023-04-18T13:05:31.640Z,102825.19
2023-04-18T13:08:15.267Z,102819.28
2023-04-18T13:10:43.794Z,102829.66
2023-04-18T13:13:10.743Z,102825.47
2023-04-18T13:15:37.963Z,102817.97
2023-04-18T13:18:06.558Z,102823.88
2023-04-18T13:20:34.353Z,102826.72
2023-04-18T13:23:02.590Z,102828.19
2023-04-18T13:25:29.070Z,102824.22
2023-04-18T13:27:56.277Z,102822.44
2023-04-18T13:30:22.689Z,102821.16
2023-04-18T13:32:58.751Z,102817.66
2023-04-18T13:35:25.233Z,102825.34
2023-04-18T13:37:51.767Z,102828.06
2023-04-18T13:40:18.271Z,102817.19
2023-04-18T13:42:52.351Z,102812.59
2023-04-18T13:45:25.003Z,102814.31
2023-04-18T13:47:51.640Z,102820.75
2023-04-18T13:50:18.537Z,102813.03
2023-04-18T13:52:44.997Z,102811.88
2023-04-18T13:55:12.400Z,102820.06
2023-04-18T13:57:39.165Z,102811.56
2023-04-18T14:00:06.715Z,102814.63
2023-04-18T14:02:33.486Z,102813.81
2023-04-18T14:05:00.477Z,102823.72
2023-04-18T14:07:27.215Z,102807.94
2023-04-18T14:09:54.062Z,102812.66
2023-04-18T14:12:21.101Z,102815.63
2023-04-18T14:14:47.965Z,102807.53
2023-04-18T14:17:14.487Z,102812.09
2023-04-18T14:19:40.988Z,102804.47
2023-04-18T14:22:08.076Z,102803.63
2023-04-18T14:24:37.356Z,102802.50
2023-04-18T14:27:03.896Z,102797.88
2023-04-18T14:29:30.314Z,102801.50
2023-04-18T14:31:56.927Z,102793.91
2023-04-18T14:34:23.696Z,102777.75
2023-04-18T14:36:51.540Z,102799.91
2023-04-18T14:39:17.947Z,102793.28
2023-04-18T14:41:45.766Z,102793.75
2023-04-18T14:47:22.006Z,102785.88
2023-04-18T14:49:49.020Z,102784.97
2023-04-18T14:52:15.357Z,102786.22
2023-04-18T14:54:42.053Z,102779.69
2023-04-18T14:57:10.156Z,102783.06
2023-04-18T14:59:36.810Z,102786.88
2023-04-18T15:02:03.535Z,102772.94
2023-04-18T15:04:30.251Z,102767.72
2023-04-18T15:06:57.046Z,102781.59
2023-04-18T15:09:23.899Z,102777.81
2023-04-18T15:11:51.506Z,102780.50
2023-04-18T15:14:17.907Z,102775.53
2023-04-18T15:16:44.520Z,102774.50
2023-04-18T15:19:10.978Z,102771.19
2023-04-18T15:21:38.823Z,102767.69
2023-04-18T15:24:05.594Z,102767.75
2023-04-18T15:26:33.266Z,102773.34
2023-04-18T15:29:03.019Z,102771.09
2023-04-18T15:31:30.877Z,102771.00
2023-04-18T15:33:57.379Z,102765.09
2023-04-18T15:36:23.894Z,102761.03
2023-04-18T15:38:50.622Z,102760.03
2023-04-18T15:41:16.981Z,102762.59
2023-04-18T15:43:45.600Z,102755.34
2023-04-18T15:46:12.299Z,102766.09
2023-04-18T15:48:38.786Z,102753.34
2023-04-18T15:51:05.509Z,102752.47
2023-04-18T15:53:32.617Z,102757.06
2023-04-18T15:56:01.780Z,102761.88
2023-04-18T15:58:30.401Z,102747.97
2023-04-18T16:00:57.391Z,102751.22
2023-04-18T16:03:24.724Z,102754.88
2023-04-18T16:05:51.717Z,102756.94
2023-04-18T16:08:18.174Z,102751.53
2023-04-18T16:10:45.218Z,102753.34
2023-04-18T16:13:11.632Z,102744.84
2023-04-18T16:15:58.474Z,102745.63
2023-04-18T16:18:24.982Z,102751.31
2023-04-18T16:20:51.928Z,102755.75
2023-04-18T16:23:20.155Z,102743.00
2023-04-18T16:25:46.862Z,102742.09
2023-04-18T16:28:13.374Z,102744.91
2023-04-18T16:30:49.140Z,102746.41
2023-04-18T16:33:16.275Z,102749.38
2023-04-18T16:35:42.740Z,102750.41
2023-04-18T16:38:09.242Z,102745.78
2023-04-18T16:40:35.802Z,102753.66
2023-04-18T16:43:02.469Z,102751.75
2023-04-18T16:45:29.008Z,102758.78
2023-04-18T16:47:55.656Z,102748.91
2023-04-18T16:50:22.707Z,102752.44
2023-04-18T16:52:49.557Z,102744.31
2023-04-18T16:55:16.048Z,102743.81
2023-04-18T16:57:42.535Z,102744.28
2023-04-18T17:00:10.235Z,102735.34
2023-04-18T17:02:39.580Z,102740.59
2023-04-18T17:05:06.880Z,102735.97
2023-04-18T17:07:33.331Z,102733.59
2023-04-18T17:10:09.854Z,102737.28
2023-04-18T17:12:36.704Z,102739.53
2023-04-18T17:15:03.725Z,102739.22
2023-04-18T17:17:30.174Z,102742.13
2023-04-18T17:19:57.403Z,102737.50
2023-04-18T17:22:24.089Z,102743.44
2023-04-18T17:24:50.729Z,102743.16
2023-04-18T17:27:17.352Z,102741.53
2023-04-18T17:29:48.884Z,102739.00
2023-04-18T17:32:15.564Z,102739.16
2023-04-18T17:34:42.154Z,102747.31
2023-04-18T17:37:08.721Z,102748.88
2023-04-18T17:39:35.331Z,102739.78
2023-04-18T17:42:02.172Z,102750.84
2023-04-18T17:44:29.171Z,102744.25
2023-04-18T17:46:55.538Z,102751.47
2023-04-18T17:49:22.016Z,102756.91
2023-04-18T17:52:03.852Z,102757.38
2023-04-18T17:54:30.427Z,102746.81
2023-04-18T17:56:57.844Z,102751.16
2023-04-18T17:59:28.218Z,102757.22
2023-04-18T18:01:54.875Z,102753.56
2023-04-18T18:04:28.012Z,102757.06
2023-04-18T18:07:01.038Z,102753.88
2023-04-18T18:09:41.460Z,102748.31
2023-04-18T18:12:10.624Z,102742.72
2023-04-18T18:14:37.876Z,102754.03
2023-04-18T18:17:04.913Z,102756.75
2023-04-18T18:19:31.603Z,102760.75
2023-04-18T18:21:58.164Z,102759.63
2023-04-18T18:24:26.974Z,102757.84
2023-04-18T18:26:53.758Z,102757.53
2023-04-18T18:29:20.654Z,102759.75
2023-04-18T18:31:47.353Z,102759.91
2023-04-18T18:34:14.022Z,102768.50
2023-04-18T18:36:40.541Z,102768.16
2023-04-18T18:39:06.978Z,102761.75
2023-04-18T18:41:33.550Z,102775.16
2023-04-18T18:43:59.959Z,102769.06
2023-04-18T18:46:27.394Z,102773.84
2023-04-18T18:48:54.017Z,102767.75
2023-04-18T18:51:20.478Z,102772.69
2023-04-18T18:53:47.100Z,102777.91
2023-04-18T18:56:13.684Z,102770.38
2023-04-18T18:58:40.688Z,102776.47
2023-04-18T19:01:07.214Z,102785.03
2023-04-18T19:03:34.849Z,102780.25
2023-04-18T19:06:11.396Z,102783.38
2023-04-18T19:08:41.487Z,102788.94
2023-04-18T19:11:08.060Z,102796.41
2023-04-18T19:13:34.827Z,102812.81
2023-04-18T19:16:01.410Z,102806.19
2023-04-18T19:18:28.372Z,102808.56
2023-04-18T19:20:54.785Z,102807.88
2023-04-18T19:23:23.776Z,102811.81
2023-04-18T19:25:50.372Z,102811.31
2023-04-18T19:28:18.379Z,102816.75
2023-04-18T19:30:46.419Z,102819.25
2023-04-18T19:33:13.046Z,102822.91
2023-04-18T19:35:40.977Z,102824.63
2023-04-18T19:38:07.462Z,102824.44
2023-04-18T19:40:34.057Z,102830.75
2023-04-18T19:43:00.805Z,102828.69
2023-04-18T19:45:27.431Z,102840.41
2023-04-18T19:47:53.876Z,102843.44
2023-04-18T19:50:20.364Z,102841.13
2023-04-18T19:52:46.821Z,102842.56
2023-04-18T19:55:13.316Z,102853.97
2023-04-18T19:57:41.532Z,102845.66
2023-04-18T20:00:13.023Z,102844.66
2023-04-18T20:02:40.562Z,102842.88
2023-04-18T20:05:09.088Z,102851.59
2023-04-18T20:07:35.919Z,102848.19
2023-04-18T20:10:02.480Z,102853.41
2023-04-18T20:12:29.067Z,102855.91
2023-04-18T20:14:56.063Z,102861.63
2023-04-18T20:17:22.758Z,102853.31
2023-04-18T20:19:49.902Z,102860.72
2023-04-18T20:22:17.161Z,102858.09
2023-04-18T20:24:45.112Z,102863.28
2023-04-18T20:27:12.076Z,102862.88
2023-04-18T20:29:38.639Z,102852.63
2023-04-18T20:32:05.760Z,102862.75
2023-04-18T20:34:32.536Z,102862.34
2023-04-18T20:37:00.185Z,102858.31
2023-04-18T20:39:28.012Z,102865.94
2023-04-18T20:41:57.582Z,102861.44
2023-04-18T20:44:25.016Z,102854.72
2023-04-18T20:47:03.583Z,102861.81
2023-04-18T20:49:29.994Z,102864.81
2023-04-18T20:51:56.849Z,102861.31
2023-04-18T20:54:23.651Z,102866.22
2023-04-18T20:56:50.080Z,102874.13
2023-04-18T20:59:19.636Z,102873.59
2023-04-18T21:01:46.865Z,102873.59
2023-04-18T21:04:14.103Z,102876.59
2023-04-18T21:06:41.074Z,102871.00
2023-04-18T21:09:07.701Z,102878.09
2023-04-18T21:11:34.827Z,102879.47
2023-04-18T21:14:01.484Z,102876.56
2023-04-18T21:16:28.094Z,102887.97
2023-04-18T21:18:55.384Z,102888.28
2023-04-18T21:21:21.849Z,102881.31
2023-04-18T21:23:48.667Z,102881.13
2023-04-18T21:26:15.242Z,102886.81
2023-04-18T21:29:01.779Z,102891.44
2023-04-18T21:31:30.821Z,102884.69
2023-04-18T21:33:59.246Z,102883.97
2023-04-18T21:36:27.468Z,102888.88
2023-04-18T21:38:56.071Z,102885.94
2023-04-18T21:41:23.674Z,102880.03
2023-04-18T21:43:50.938Z,102880.63
2023-04-18T21:46:17.577Z,102876.59
2023-04-18T21:48:46.090Z,102884.19
2023-04-18T21:51:15.072Z,102884.75
2023-04-18T21:53:42.115Z,102890.16
2023-04-18T21:56:09.123Z,102883.19
2023-04-18T21:58:35.605Z,102878.56
2023-04-18T22:01:02.673Z,102886.38
2023-04-18T22:03:29.373Z,102891.00
2023-04-18T22:05:56.621Z,102886.66
2023-04-18T22:08:25.912Z,102887.25
2023-04-18T22:10:57.730Z,102889.16
2023-04-18T22:13:25.630Z,102882.41
2023-04-18T22:15:52.005Z,102878.41
2023-04-18T22:18:19.196Z,102877.91
2023-04-18T22:20:47.326Z,102876.56
2023-04-18T22:23:14.294Z,102876.88
2023-04-18T22:25:41.038Z,102880.69
2023-04-18T22:28:07.875Z,102874.22
2023-04-18T22:30:34.405Z,102878.03
2023-04-18T22:33:00.881Z,102887.00
2023-04-18T22:35:27.584Z,102883.00
2023-04-18T22:37:55.330Z,102885.47
2023-04-18T22:40:21.976Z,102882.25
2023-04-18T22:42:48.534Z,102886.63
2023-04-18T22:45:15.504Z,102883.91
2023-04-18T22:47:42.237Z,102888.53
2023-04-18T22:50:08.918Z,102891.28
2023-04-18T22:52:35.666Z,102893.75
2023-04-18T22:55:03.273Z,102893.53
2023-04-18T22:57:29.846Z,102889.50
2023-04-18T22:59:56.475Z,102896.81
2023-04-18T23:02:23.297Z,102897.38
2023-04-18T23:04:50.610Z,102887.66
2023-04-18T23:07:17.199Z,102894.16
2023-04-18T23:09:43.865Z,102895.53
2023-04-18T23:12:10.410Z,102898.00
2023-04-18T23:14:36.942Z,102903.69
2023-04-18T23:17:03.418Z,102908.00
2023-04-18T23:19:29.986Z,102912.88
2023-04-18T23:21:56.489Z,102909.97
2023-04-18T23:24:23.007Z,102911.81
2023-04-18T23:26:49.722Z,102910.75
2023-04-18T23:29:16.427Z,102910.47
2023-04-18T23:31:42.916Z,102909.91
2023-04-18T23:34:10.621Z,102912.31
2023-04-18T23:36:37.324Z,102906.91
2023-04-18T23:39:04.193Z,102913.13
2023-04-18T23:41:30.738Z,102910.13
2023-04-18T23:43:57.138Z,102912.56
2023-04-18T23:46:23.621Z,102897.44
2023-04-18T23:48:50.090Z,102901.22
2023-04-18T23:51:16.702Z,102910.41
2023-04-18T23:53:43.161Z,102902.59
2023-04-18T23:56:09.593Z,102900.19
2023-04-18T23:58:35.995Z,102898.59
